Time;durP1;ratioP1;P1;durP2;ratioP2;P2;SDS_P1;SDS_P2;PMS_P1;PMS_P2;Temp;Humidity;BMP_temperature;BMP_pressure;BME280_temperature;BME280_humidity;BME280_pressure;Samples;Min_cycle;Max_cycle;Signal;HPM_P1;HPM_P2
2022/02/15 00:01:45;;;;;;;1.13;0.90;;;19.30;49.20;;;;;;6146177;29;20030;-66
2022/02/15 00:04:45;;;;;;;1.30;0.80;;;19.30;49.20;;;;;;6145619;29;20054;-66
2022/02/15 00:07:46;;;;;;;1.00;0.70;;;19.30;49.20;;;;;;6162648;28;20015;-66
2022/02/15 00:10:47;;;;;;;1.42;0.82;;;19.30;49.20;;;;;;6169900;28;20316;-66
2022/02/15 00:13:48;;;;;;;0.75;0.70;;;19.30;49.20;;;;;;6169703;28;20039;-65
2022/02/15 00:16:50;;;;;;;0.75;0.68;;;19.30;49.20;;;;;;6169614;28;20279;-65
2022/02/15 00:19:51;;;;;;;1.00;0.80;;;19.30;49.20;;;;;;6168779;28;20042;-65
2022/02/15 00:22:51;;;;;;;0.98;0.85;;;19.30;49.20;;;;;;6169431;28;20471;-66
2022/02/15 00:25:52;;;;;;;1.63;1.00;;;19.30;49.20;;;;;;6169285;28;20050;-66
2022/02/15 00:28:53;;;;;;;0.93;0.65;;;19.30;49.20;;;;;;6170241;28;20026;-65
2022/02/15 00:31:54;;;;;;;0.70;0.60;;;19.30;49.90;;;;;;6169016;28;20784;-65
2022/02/15 00:34:54;;;;;;;1.20;0.80;;;19.30;49.20;;;;;;6146065;28;20042;-65
2022/02/15 00:37:55;;;;;;;1.95;1.05;;;19.30;49.20;;;;;;6145684;28;20110;-66
2022/02/15 00:40:55;;;;;;;0.80;0.60;;;19.30;49.20;;;;;;6145468;28;20058;-66
2022/02/15 00:43:56;;;;;;;0.82;0.60;;;19.30;49.20;;;;;;6145556;29;20019;-65
2022/02/15 00:46:56;;;;;;;0.85;0.70;;;19.30;49.20;;;;;;6145637;29;20498;-65
2022/02/15 00:49:57;;;;;;;1.50;0.80;;;19.30;49.20;;;;;;6145599;29;20082;-65
2022/02/15 00:52:57;;;;;;;1.02;0.73;;;19.30;49.20;;;;;;6145920;29;20330;-65
2022/02/15 00:55:58;;;;;;;1.60;0.98;;;19.30;49.20;;;;;;6144868;29;20634;-65
2022/02/15 00:58:58;;;;;;;1.35;0.82;;;19.30;49.20;;;;;;6145995;29;20498;-65
2022/02/15 01:01:59;;;;;;;0.70;0.65;;;19.30;49.20;;;;;;6145503;29;20035;-65
2022/02/15 01:04:59;;;;;;;1.02;0.80;;;19.30;49.20;;;;;;6145682;29;20047;-66
2022/02/15 01:08:01;;;;;;;1.25;0.90;;;19.30;49.20;;;;;;6164496;28;20500;-66
2022/02/15 01:11:02;;;;;;;1.23;0.80;;;19.30;49.30;;;;;;6169650;28;20023;-65
2022/02/15 01:14:04;;;;;;;1.00;0.80;;;19.30;49.20;;;;;;6169267;28;20102;-65
2022/02/15 01:17:05;;;;;;;0.70;0.70;;;19.30;49.20;;;;;;6168940;28;20093;-65
2022/02/15 01:20:06;;;;;;;0.98;0.80;;;19.30;49.20;;;;;;6171012;28;20037;-65
2022/02/15 01:23:06;;;;;;;1.23;0.80;;;19.30;49.20;;;;;;6174311;28;20033;-65
2022/02/15 01:26:07;;;;;;;0.73;0.70;;;19.30;49.20;;;;;;6173400;28;20035;-65
2022/02/15 01:29:08;;;;;;;0.90;0.77;;;19.30;49.20;;;;;;6173323;28;20387;-66
2022/02/15 01:32:08;;;;;;;1.65;0.80;;;19.30;49.20;;;;;;6171027;28;20964;-65
2022/02/15 01:35:09;;;;;;;1.42;1.00;;;19.30;49.20;;;;;;6152593;28;20398;-65
2022/02/15 01:38:09;;;;;;;0.85;0.73;;;19.30;49.20;;;;;;6173428;28;20026;-65
2022/02/15 01:41:10;;;;;;;0.93;0.68;;;19.30;49.20;;;;;;6170154;28;20482;-65
2022/02/15 01:44:10;;;;;;;1.10;1.00;;;19.30;49.20;;;;;;6149131;29;20038;-66
2022/02/15 01:47:22;;;;;;;2.20;0.70;;;19.30;49.20;;;;;;6149183;29;20066;-65
2022/02/15 01:50:22;;;;;;;0.95;0.70;;;19.30;49.20;;;;;;6149039;29;20028;-65
2022/02/15 01:53:23;;;;;;;0.93;0.80;;;19.30;49.20;;;;;;6149133;29;20062;-65
2022/02/15 01:56:26;;;;;;;0.85;0.73;;;19.30;49.30;;;;;;6148390;29;20058;-65
2022/02/15 01:59:27;;;;;;;1.00;0.88;;;19.30;49.20;;;;;;6149094;29;20035;-66
2022/02/15 02:02:28;;;;;;;0.85;0.80;;;19.30;49.20;;;;;;6163051;28;20038;-66
2022/02/15 02:08:48;;;;;;;1.25;0.80;;;19.30;50.00;;;;;;6172798;28;20035;-65
2022/02/15 02:11:48;;;;;;;0.93;0.77;;;19.30;49.30;;;;;;6172603;28;20500;-64
2022/02/15 02:15:22;;;;;;;1.60;1.00;;;19.30;49.30;;;;;;6172624;28;20031;-65
2022/02/15 02:18:23;;;;;;;0.90;0.77;;;19.30;49.30;;;;;;6172088;28;20034;-66
2022/02/15 02:21:38;;;;;;;1.35;0.90;;;19.30;49.30;;;;;;6172478;28;20027;-65
2022/02/15 02:24:38;;;;;;;1.30;0.75;;;19.30;49.30;;;;;;6172411;28;20031;-65
2022/02/15 02:27:39;;;;;;;1.70;0.80;;;19.30;49.30;;;;;;6172085;28;20888;-66
2022/02/15 02:30:40;;;;;;;1.30;0.85;;;19.30;49.30;;;;;;6171834;28;20086;-65
2022/02/15 02:33:40;;;;;;;1.55;0.90;;;19.30;49.30;;;;;;6171755;28;20039;-66
2022/02/15 02:36:45;;;;;;;1.20;0.80;;;19.30;49.30;;;;;;6171654;28;20046;-65
2022/02/15 02:39:48;;;;;;;1.67;0.80;;;19.30;49.30;;;;;;6172425;28;20126;-66
2022/02/15 02:42:49;;;;;;;0.90;0.70;;;19.30;49.30;;;;;;6172282;28;20549;-66
2022/02/15 02:45:50;;;;;;;1.30;0.90;;;19.30;49.30;;;;;;6172063;28;20066;-66
2022/02/15 02:48:50;;;;;;;0.80;0.70;;;19.30;49.30;;;;;;6171716;28;20031;-66
2022/02/15 02:51:51;;;;;;;1.15;0.68;;;19.30;49.30;;;;;;6171682;28;20038;-65
2022/02/15 02:54:52;;;;;;;1.10;0.90;;;19.30;49.30;;;;;;6171495;28;20062;-66
2022/02/15 02:57:53;;;;;;;1.17;0.85;;;19.30;49.30;;;;;;6171677;28;20129;-65
2022/02/15 03:00:53;;;;;;;1.10;0.80;;;19.30;49.30;;;;;;6171417;28;20322;-65
2022/02/15 03:03:54;;;;;;;1.33;1.00;;;19.30;49.30;;;;;;6171738;28;20327;-65
2022/02/15 03:06:55;;;;;;;1.23;0.90;;;19.30;49.30;;;;;;6171253;28;20035;-64
2022/02/15 03:09:55;;;;;;;1.33;0.80;;;19.30;49.30;;;;;;6171878;28;20113;-66
2022/02/15 03:12:55;;;;;;;1.23;0.90;;;19.30;49.30;;;;;;6171243;28;20066;-66
2022/02/15 03:15:56;;;;;;;1.23;0.80;;;19.30;49.30;;;;;;6171167;28;20030;-66
2022/02/15 03:18:56;;;;;;;1.20;0.80;;;19.30;49.30;;;;;;6171437;28;20276;-65
2022/02/15 03:21:59;;;;;;;0.82;0.80;;;19.30;49.30;;;;;;6186227;28;20565;-65
2022/02/15 03:24:59;;;;;;;0.90;0.80;;;19.30;49.30;;;;;;6171633;28;20093;-65
2022/02/15 03:28:00;;;;;;;0.70;0.60;;;19.30;49.30;;;;;;6171063;28;20030;-65
2022/02/15 03:31:00;;;;;;;1.20;0.98;;;19.30;49.30;;;;;;6171051;28;20501;-65
2022/02/15 03:34:01;;;;;;;1.85;0.80;;;19.30;49.30;;;;;;6153493;28;20074;-66
2022/02/15 03:37:01;;;;;;;0.73;0.60;;;19.30;49.30;;;;;;6146659;28;20027;-65
2022/02/15 03:40:02;;;;;;;1.50;0.70;;;19.30;49.30;;;;;;6146944;29;20086;-65
2022/02/15 03:43:06;;;;;;;1.10;0.63;;;19.30;49.40;;;;;;6147143;28;20027;-65
2022/02/15 03:46:07;;;;;;;1.17;0.88;;;19.30;49.30;;;;;;6146611;29;20062;-66
2022/02/15 03:49:11;;;;;;;1.20;0.77;;;19.30;49.30;;;;;;6146296;29;20039;-66
2022/02/15 03:52:11;;;;;;;1.13;0.82;;;19.30;49.30;;;;;;6146712;29;20035;-66
2022/02/15 03:55:12;;;;;;;1.15;0.70;;;19.30;49.40;;;;;;6146083;29;20507;-65
2022/02/15 03:58:13;;;;;;;1.63;0.82;;;19.30;49.30;;;;;;6147024;29;20023;-66
2022/02/15 04:01:14;;;;;;;0.88;0.70;;;19.30;49.40;;;;;;6146347;29;20023;-65
2022/02/15 04:04:14;;;;;;;1.52;0.90;;;19.30;49.40;;;;;;6146838;29;20019;-66
2022/02/15 04:07:15;;;;;;;1.55;0.90;;;19.30;49.30;;;;;;6159163;28;20033;-65
2022/02/15 04:10:17;;;;;;;1.00;0.80;;;19.30;49.30;;;;;;6170526;28;20023;-65
2022/02/15 04:13:17;;;;;;;0.68;0.63;;;19.30;49.40;;;;;;6169989;28;20042;-66
2022/02/15 04:16:18;;;;;;;1.52;0.90;;;19.30;49.40;;;;;;6169746;28;20312;-66
2022/02/15 04:19:18;;;;;;;0.63;0.63;;;19.30;49.30;;;;;;6170234;28;20022;-65
2022/02/15 04:22:19;;;;;;;0.75;0.50;;;19.30;49.40;;;;;;6169905;28;20110;-66
2022/02/15 04:25:19;;;;;;;1.33;1.00;;;19.30;49.40;;;;;;6170030;28;20031;-66
2022/02/15 04:28:20;;;;;;;1.45;0.90;;;19.30;49.30;;;;;;6169769;28;20113;-65
2022/02/15 04:31:20;;;;;;;0.93;0.70;;;19.30;49.40;;;;;;6169990;28;20023;-65
2022/02/15 04:34:21;;;;;;;1.13;0.70;;;19.30;49.40;;;;;;6149863;28;20248;-65
2022/02/15 04:37:22;;;;;;;1.27;0.75;;;19.30;49.40;;;;;;6145937;28;20538;-65
2022/02/15 04:40:22;;;;;;;1.48;0.93;;;19.30;49.40;;;;;;6145958;28;20102;-66
2022/02/15 04:43:23;;;;;;;1.13;0.80;;;19.30;49.40;;;;;;6145597;28;20024;-65
2022/02/15 04:46:23;;;;;;;1.48;0.80;;;19.30;49.40;;;;;;6145608;29;20035;-66
2022/02/15 04:49:24;;;;;;;0.90;0.57;;;19.30;49.40;;;;;;6145973;29;20434;-65
2022/02/15 04:52:24;;;;;;;0.80;0.70;;;19.30;49.40;;;;;;6145333;29;20039;-66
2022/02/15 04:55:25;;;;;;;0.65;0.63;;;19.30;49.40;;;;;;6148253;28;20195;-65
2022/02/15 04:58:26;;;;;;;1.00;0.80;;;19.30;50.10;;;;;;6150855;29;20027;-66
2022/02/15 05:01:26;;;;;;;0.85;0.60;;;19.30;49.40;;;;;;6150720;29;20053;-66
2022/02/15 05:07:46;;;;;;;1.30;0.73;;;19.30;49.40;;;;;;6167317;28;20486;-66
2022/02/15 05:10:47;;;;;;;1.00;0.80;;;19.30;49.40;;;;;;6173785;28;20042;-66
2022/02/15 05:13:47;;;;;;;1.45;0.70;;;19.30;49.40;;;;;;6173526;28;20035;-65
2022/02/15 05:16:48;;;;;;;1.02;0.68;;;19.30;49.40;;;;;;6174165;28;20034;-66
2022/02/15 05:19:48;;;;;;;0.90;0.70;;;19.30;49.40;;;;;;6174313;28;20356;-66
2022/02/15 05:22:51;;;;;;;0.80;0.70;;;19.30;49.40;;;;;;6174192;28;20018;-66
2022/02/15 05:25:52;;;;;;;0.65;0.60;;;19.30;49.30;;;;;;6173597;28;20492;-66
2022/02/15 05:28:52;;;;;;;1.02;0.70;;;19.30;49.40;;;;;;6173796;28;20039;-65
2022/02/15 05:31:53;;;;;;;0.80;0.65;;;19.30;49.40;;;;;;6173147;28;20067;-65
2022/02/15 05:34:53;;;;;;;1.10;0.90;;;19.30;49.40;;;;;;6149500;28;20110;-66
2022/02/15 05:37:54;;;;;;;0.90;0.60;;;19.30;49.40;;;;;;6149693;28;20027;-66
2022/02/15 05:40:55;;;;;;;1.02;0.73;;;19.30;49.40;;;;;;6149582;28;20053;-66
2022/02/15 05:43:55;;;;;;;0.63;0.60;;;19.30;49.40;;;;;;6149000;29;20337;-66
2022/02/15 05:46:56;;;;;;;0.60;0.57;;;19.30;49.40;;;;;;6149120;29;20035;-66
2022/02/15 05:53:24;;;;;;;0.82;0.57;;;19.30;49.40;;;;;;6149277;29;20083;-66
2022/02/15 05:56:25;;;;;;;1.38;0.70;;;19.30;49.40;;;;;;6148441;29;20040;-66
2022/02/15 05:59:25;;;;;;;1.30;0.68;;;19.30;49.40;;;;;;6149323;29;20023;-66
2022/02/15 06:02:26;;;;;;;0.90;0.70;;;19.30;49.40;;;;;;6148977;28;20123;-66
2022/02/15 06:05:28;;;;;;;1.25;0.75;;;19.30;49.40;;;;;;6148157;28;20490;-65
2022/02/15 06:08:28;;;;;;;1.27;1.00;;;19.30;49.40;;;;;;6158920;28;20105;-66
2022/02/15 06:11:29;;;;;;;0.88;0.75;;;19.30;49.40;;;;;;6171025;28;20046;-65
2022/02/15 06:14:29;;;;;;;1.15;0.93;;;19.30;49.40;;;;;;6152372;28;20027;-65
2022/02/15 06:17:31;;;;;;;0.70;0.60;;;19.30;49.40;;;;;;6168691;28;20074;-65
2022/02/15 06:20:32;;;;;;;1.00;0.60;;;19.30;49.30;;;;;;6165559;28;20026;-65
2022/02/15 06:23:32;;;;;;;1.15;0.60;;;19.30;49.40;;;;;;6158051;28;20300;-65
2022/02/15 06:26:33;;;;;;;1.92;0.60;;;19.30;49.40;;;;;;6155184;28;20054;-65
2022/02/15 06:29:34;;;;;;;1.90;0.90;;;19.30;49.40;;;;;;6148356;28;20031;-66
2022/02/15 06:32:35;;;;;;;0.88;0.70;;;19.30;49.40;;;;;;6147331;28;20049;-66
2022/02/15 06:35:36;;;;;;;1.35;0.98;;;19.30;49.40;;;;;;6144632;28;20039;-65
2022/02/15 06:38:37;;;;;;;1.02;0.70;;;19.30;49.40;;;;;;6171342;28;20521;-66
2022/02/15 06:41:37;;;;;;;5.18;0.82;;;19.30;49.70;;;;;;6164839;28;20501;-69
2022/02/15 06:44:38;;;;;;;8.68;1.15;;;19.40;49.90;;;;;;6147477;29;20525;-69
2022/02/15 06:47:39;;;;;;;8.50;1.10;;;19.50;49.70;;;;;;6147210;29;20038;-68
2022/02/15 06:50:39;;;;;;;4.70;0.93;;;19.50;49.50;;;;;;6147526;29;20500;-69
2022/02/15 06:53:40;;;;;;;3.40;1.13;;;19.50;49.40;;;;;;6167877;28;20035;-69
2022/02/15 06:56:41;;;;;;;9.38;2.22;;;19.50;49.40;;;;;;6170818;28;20097;-68
2022/02/15 06:59:42;;;;;;;15.27;2.03;;;19.50;49.50;;;;;;6166893;28;20038;-72
2022/02/15 07:02:43;;;;;;;10.60;2.33;;;19.50;49.60;;;;;;6172421;28;20129;-72
2022/02/15 07:05:43;;;;;;;27.45;3.03;;;19.60;49.90;;;;;;6173159;28;20031;-67
2022/02/15 07:08:44;;;;;;;25.23;3.00;;;19.60;49.80;;;;;;6172486;28;20023;-67
2022/02/15 07:11:44;;;;;;;11.32;3.65;;;19.60;50.30;;;;;;6172565;28;20038;-67
2022/02/15 07:14:45;;;;;;;21.83;3.35;;;19.60;50.30;;;;;;6172289;28;20502;-67
2022/02/15 07:17:45;;;;;;;26.63;4.07;;;19.70;50.10;;;;;;6171297;28;20026;-66
2022/02/15 07:20:46;;;;;;;18.08;4.10;;;19.70;50.20;;;;;;6173254;28;20511;-67
2022/02/15 07:23:46;;;;;;;13.15;3.28;;;19.70;50.00;;;;;;6172598;28;20221;-66
2022/02/15 07:26:47;;;;;;;12.38;3.28;;;19.60;49.90;;;;;;6172397;28;20498;-66
2022/02/15 07:29:47;;;;;;;22.38;3.40;;;19.70;50.70;;;;;;6172179;28;20065;-67
2022/02/15 07:32:48;;;;;;;15.32;3.38;;;19.60;49.90;;;;;;6172511;28;20119;-69
2022/02/15 07:35:48;;;;;;;18.88;3.30;;;19.70;50.10;;;;;;6172223;28;20042;-67
2022/02/15 07:38:49;;;;;;;26.30;4.10;;;19.70;50.40;;;;;;6171867;28;20027;-67
2022/02/15 07:41:50;;;;;;;16.70;3.35;;;19.60;50.50;;;;;;6163816;28;20111;-67
2022/02/15 07:44:50;;;;;;;14.68;3.22;;;19.70;50.50;;;;;;6148331;29;20031;-67
2022/02/15 07:47:52;;;;;;;17.50;3.97;;;19.70;50.40;;;;;;6147434;29;20105;-67
2022/02/15 07:50:53;;;;;;;11.93;3.72;;;19.60;50.40;;;;;;6148472;29;20031;-67
2022/02/15 07:53:53;;;;;;;17.52;3.13;;;19.60;50.40;;;;;;6147840;29;20609;-67
2022/02/15 07:56:54;;;;;;;13.25;2.50;;;19.60;50.30;;;;;;6147907;29;20031;-67
2022/02/15 07:59:54;;;;;;;10.77;2.40;;;19.50;50.00;;;;;;6147880;29;20668;-67
2022/02/15 08:02:55;;;;;;;8.75;3.28;;;19.50;48.80;;;;;;6166674;28;20039;-67
2022/02/15 08:05:56;;;;;;;17.67;3.38;;;19.50;48.10;;;;;;6171086;28;20117;-67
2022/02/15 08:08:57;;;;;;;11.93;3.45;;;19.40;47.40;;;;;;6171506;28;20027;-67
2022/02/15 08:11:58;;;;;;;15.65;3.03;;;19.40;46.50;;;;;;6171180;28;20027;-67
2022/02/15 08:14:59;;;;;;;10.57;2.55;;;19.40;46.40;;;;;;6171647;28;20027;-67
2022/02/15 08:18:01;;;;;;;10.02;2.97;;;19.40;46.30;;;;;;6170895;28;20299;-68
2022/02/15 08:21:02;;;;;;;8.70;2.47;;;19.40;45.60;;;;;;6171838;28;20035;-66
2022/02/15 08:24:03;;;;;;;11.25;3.35;;;19.40;45.50;;;;;;6154580;28;20034;-67
2022/02/15 08:27:03;;;;;;;9.60;2.95;;;19.40;45.20;;;;;;6147583;28;20027;-66
2022/02/15 08:30:05;;;;;;;11.32;2.80;;;19.40;45.10;;;;;;6146753;28;20031;-66
2022/02/15 08:33:06;;;;;;;6.93;2.58;;;19.40;44.70;;;;;;6156842;28;20544;-67
2022/02/15 08:36:06;;;;;;;10.40;2.50;;;19.40;44.40;;;;;;6171269;28;20041;-67
2022/02/15 08:39:07;;;;;;;10.55;2.63;;;19.40;44.20;;;;;;6171097;28;20413;-66
2022/02/15 08:42:08;;;;;;;7.82;2.72;;;19.30;44.10;;;;;;6160728;28;20154;-66
2022/02/15 08:45:10;;;;;;;7.70;2.50;;;19.30;44.00;;;;;;6146954;29;20051;-67
2022/02/15 08:48:10;;;;;;;7.07;2.90;;;19.30;43.90;;;;;;6147171;29;20041;-67
2022/02/15 08:51:11;;;;;;;9.45;2.15;;;19.30;43.80;;;;;;6147133;29;20015;-67
2022/02/15 08:54:11;;;;;;;9.05;2.45;;;19.30;43.70;;;;;;6147311;29;20166;-66
2022/02/15 08:57:12;;;;;;;11.15;2.55;;;19.30;43.50;;;;;;6145507;29;20390;-67
2022/02/15 09:00:14;;;;;;;7.90;2.10;;;19.30;43.40;;;;;;6147208;29;20035;-66
2022/02/15 09:03:15;;;;;;;6.53;1.95;;;19.30;44.70;;;;;;6168466;28;20039;-67
2022/02/15 09:06:16;;;;;;;15.10;2.95;;;19.40;44.10;;;;;;6171073;28;20110;-67
2022/02/15 09:09:16;;;;;;;15.70;2.45;;;19.40;44.50;;;;;;6170107;28;20382;-67
2022/02/15 09:12:17;;;;;;;9.68;2.28;;;19.30;43.90;;;;;;6169850;28;20031;-67
2022/02/15 09:15:17;;;;;;;11.85;2.63;;;19.30;44.20;;;;;;6170703;28;20023;-67
2022/02/15 09:18:18;;;;;;;9.60;2.72;;;19.30;43.10;;;;;;6170601;28;20027;-67
2022/02/15 09:21:18;;;;;;;11.55;2.92;;;19.30;43.00;;;;;;6170750;28;20022;-67
2022/02/15 09:24:20;;;;;;;9.77;2.30;;;19.30;42.90;;;;;;6171305;28;20027;-67
2022/02/15 09:27:20;;;;;;;10.02;2.50;;;19.30;42.80;;;;;;6170282;28;20106;-67
2022/02/15 09:30:21;;;;;;;6.90;2.20;;;19.30;42.70;;;;;;6170971;28;20019;-66
2022/02/15 09:33:23;;;;;;;11.27;2.85;;;19.30;42.50;;;;;;6158686;28;20085;-67
2022/02/15 09:36:25;;;;;;;11.15;2.70;;;19.20;42.40;;;;;;6146738;28;20027;-67
2022/02/15 09:39:26;;;;;;;11.93;2.92;;;19.30;43.30;;;;;;6146440;28;20027;-67
2022/02/15 09:42:26;;;;;;;11.45;2.58;;;19.20;42.50;;;;;;6151013;28;20090;-67
2022/02/15 09:45:28;;;;;;;15.23;2.28;;;19.20;42.60;;;;;;6150421;29;20023;-67
2022/02/15 09:48:29;;;;;;;13.00;2.80;;;19.20;42.50;;;;;;6150720;29;20042;-67
2022/02/15 09:51:29;;;;;;;13.73;2.53;;;19.20;42.40;;;;;;6150754;29;20035;-67
2022/02/15 09:54:30;;;;;;;12.10;2.80;;;19.20;42.00;;;;;;6150610;29;20051;-66
2022/02/15 09:57:31;;;;;;;6.10;2.15;;;19.30;42.40;;;;;;6150310;29;20027;-67
2022/02/15 10:00:32;;;;;;;11.38;2.17;;;19.30;43.60;;;;;;6150799;28;20027;-67
2022/02/15 10:03:33;;;;;;;7.07;2.35;;;19.30;43.40;;;;;;6174514;28;20023;-67
2022/02/15 10:06:35;;;;;;;10.77;2.10;;;19.30;43.60;;;;;;6174608;28;20033;-67
2022/02/15 10:09:36;;;;;;;5.65;1.98;;;19.30;43.90;;;;;;6174175;28;20031;-67
2022/02/15 10:12:36;;;;;;;8.02;2.33;;;19.30;44.00;;;;;;6174083;28;20046;-67
2022/02/15 10:15:40;;;;;;;12.55;2.53;;;19.20;43.40;;;;;;6174408;28;20033;-67
2022/02/15 10:18:41;;;;;;;13.73;2.15;;;19.20;42.70;;;;;;6173914;28;20034;-67
2022/02/15 10:21:42;;;;;;;10.63;2.30;;;19.20;42.40;;;;;;6174154;28;20027;-68
2022/02/15 10:24:50;;;;;;;10.18;2.38;;;19.20;42.30;;;;;;6174498;28;20019;-67
2022/02/15 10:27:50;;;;;;;14.52;2.50;;;19.20;42.00;;;;;;6175065;28;20421;-67
2022/02/15 10:30:55;;;;;;;6.85;2.15;;;19.20;42.10;;;;;;6174383;28;20114;-67
2022/02/15 10:34:03;;;;;;;;;;;19.30;42.80;;;;;;6174731;28;20030;-67
2022/02/15 10:37:06;;;;;;;7.05;1.80;;;19.30;43.00;;;;;;6174333;28;19906;-67
2022/02/15 10:40:07;;;;;;;16.63;2.20;;;19.30;43.10;;;;;;6174154;28;20470;-68
2022/02/15 10:43:08;;;;;;;6.95;2.08;;;19.30;43.40;;;;;;6155918;28;20501;-67
2022/02/15 10:46:19;;;;;;;8.18;1.63;;;19.30;43.50;;;;;;6149784;29;20059;-67
2022/02/15 10:49:21;;;;;;;13.45;1.90;;;19.30;43.70;;;;;;6150781;29;20024;-67
2022/02/15 10:52:22;;;;;;;9.63;1.67;;;19.30;43.80;;;;;;6149167;28;20035;-67
2022/02/15 10:55:22;;;;;;;6.30;1.65;;;19.30;43.90;;;;;;6149691;29;20576;-68
2022/02/15 10:58:27;;;;;;;3.30;1.38;;;19.30;44.00;;;;;;6149825;29;20030;-67
2022/02/15 11:01:29;;;;;;;5.93;1.60;;;19.30;44.10;;;;;;6149765;29;20015;-67
2022/02/15 11:04:32;;;;;;;4.97;1.40;;;19.30;44.30;;;;;;6149447;29;20031;-67
2022/02/15 11:07:36;;;;;;;3.97;1.42;;;19.30;44.30;;;;;;6164644;28;20031;-67
2022/02/15 11:11:00;;;;;;;5.22;1.50;;;19.30;45.10;;;;;;6173443;28;20022;-67
2022/02/15 11:14:01;;;;;;;2.70;1.03;;;19.30;44.50;;;;;;6173491;28;20027;-67
2022/02/15 11:17:02;;;;;;;4.15;1.38;;;19.30;44.70;;;;;;6173135;28;20512;-67
2022/02/15 11:20:06;;;;;;;3.67;1.40;;;19.30;44.80;;;;;;6173199;28;20031;-67
2022/02/15 11:23:17;;;;;;;3.78;1.30;;;19.30;44.80;;;;;;6172946;28;20031;-67
2022/02/15 11:26:17;;;;;;;4.32;1.27;;;19.30;44.80;;;;;;6172934;28;20501;-67
2022/02/15 11:29:22;;;;;;;3.92;1.38;;;19.30;45.60;;;;;;6173012;28;20038;-67
2022/02/15 11:32:29;;;;;;;3.70;1.10;;;19.30;44.90;;;;;;6168607;28;20490;-67
2022/02/15 11:35:30;;;;;;;3.40;1.10;;;19.30;45.00;;;;;;6148950;28;20114;-67
2022/02/15 11:38:31;;;;;;;3.00;1.20;;;19.30;45.10;;;;;;6148584;28;20031;-67
2022/02/15 11:41:42;;;;;;;5.15;1.13;;;19.30;45.20;;;;;;6148168;28;20118;-67
2022/02/15 11:44:44;;;;;;;3.60;1.27;;;19.30;45.20;;;;;;6148686;29;20502;-66
2022/02/15 11:47:46;;;;;;;4.10;1.10;;;19.30;45.30;;;;;;6148450;29;20078;-67
2022/02/15 11:50:54;;;;;;;1.63;0.90;;;19.30;45.30;;;;;;6148458;29;20042;-67
2022/02/15 11:53:56;;;;;;;2.05;0.95;;;19.30;45.40;;;;;;6148240;29;20043;-67
2022/02/15 11:56:57;;;;;;;2.83;1.10;;;19.30;45.50;;;;;;6148502;28;20088;-67
2022/02/15 11:59:58;;;;;;;2.00;0.90;;;19.30;45.50;;;;;;6148393;29;20605;-67
2022/02/15 12:02:58;;;;;;;3.42;0.90;;;19.30;45.60;;;;;;6148425;28;20446;-67
2022/02/15 12:05:59;;;;;;;3.13;0.82;;;19.30;45.60;;;;;;6150009;28;20030;-67
2022/02/15 12:08:59;;;;;;;3.63;1.13;;;19.30;45.60;;;;;;6172313;28;20043;-67
2022/02/15 12:12:01;;;;;;;3.42;0.90;;;19.30;45.70;;;;;;6171643;28;20031;-67
2022/02/15 12:15:05;;;;;;;2.20;1.08;;;19.30;45.80;;;;;;6172144;28;20034;-67
2022/02/15 12:18:05;;;;;;;3.05;1.13;;;19.30;45.80;;;;;;6172131;28;20344;-66
2022/02/15 12:21:06;;;;;;;2.53;0.80;;;19.30;45.80;;;;;;6171871;28;20030;-67
2022/02/15 12:24:07;;;;;;;1.35;0.70;;;19.30;45.80;;;;;;6172332;28;20023;-67
2022/02/15 12:27:08;;;;;;;2.25;0.95;;;19.30;45.80;;;;;;6171563;28;20034;-67
2022/02/15 12:30:12;;;;;;;1.70;0.80;;;19.30;45.80;;;;;;6172606;28;20138;-67
2022/02/15 12:33:12;;;;;;;2.00;0.70;;;19.30;45.80;;;;;;6161083;28;20045;-67
2022/02/15 12:36:14;;;;;;;2.10;1.08;;;19.30;45.90;;;;;;6147532;28;20027;-67
2022/02/15 12:39:15;;;;;;;3.92;1.10;;;19.30;45.80;;;;;;6147394;28;20023;-67
2022/02/15 12:42:17;;;;;;;2.47;1.00;;;19.30;45.90;;;;;;6158869;28;20034;-67
2022/02/15 12:45:17;;;;;;;2.15;0.70;;;19.30;46.00;;;;;;6171359;28;20030;-67
2022/02/15 12:48:18;;;;;;;1.73;0.80;;;19.30;46.70;;;;;;6171850;28;20030;-67
2022/02/15 12:51:20;;;;;;;1.65;0.80;;;19.30;46.00;;;;;;6171549;28;20034;-67
2022/02/15 12:54:20;;;;;;;2.03;0.82;;;19.30;46.10;;;;;;6171560;28;20049;-67
2022/02/15 12:57:22;;;;;;;2.55;0.90;;;19.30;46.30;;;;;;6172029;28;20027;-67
2022/02/15 13:00:27;;;;;;;2.15;0.63;;;19.30;46.00;;;;;;6171445;28;20023;-67
2022/02/15 13:03:33;;;;;;;1.38;0.75;;;19.30;46.20;;;;;;6171581;28;20027;-67
2022/02/15 13:06:39;;;;;;;2.20;0.82;;;19.30;46.20;;;;;;6171369;28;20121;-67
2022/02/15 13:09:45;;;;;;;3.28;0.90;;;19.30;46.20;;;;;;6171420;28;20054;-67
2022/02/15 13:12:47;;;;;;;1.77;0.82;;;19.30;46.20;;;;;;6171384;28;20034;-67
2022/02/15 13:15:53;;;;;;;1.83;0.75;;;19.30;46.20;;;;;;6172611;28;20110;-68
2022/02/15 13:19:00;;;;;;;2.55;0.90;;;19.30;46.30;;;;;;6175813;28;20033;-67
2022/02/15 13:22:09;;;;;;;1.33;0.68;;;19.30;46.30;;;;;;6175926;28;20027;-67
2022/02/15 13:25:10;;;;;;;4.28;0.82;;;19.30;46.30;;;;;;6175696;28;20541;-67
2022/02/15 13:28:11;;;;;;;1.42;0.70;;;19.30;46.30;;;;;;6176325;28;20023;-68
2022/02/15 13:31:11;;;;;;;1.48;0.77;;;19.30;46.30;;;;;;6175411;28;20025;-67
2022/02/15 13:34:12;;;;;;;1.20;0.70;;;19.30;46.30;;;;;;6156680;28;20502;-67
2022/02/15 13:37:14;;;;;;;1.90;0.80;;;19.30;46.40;;;;;;6164878;28;20034;-68
2022/02/15 13:40:14;;;;;;;1.10;0.68;;;19.30;46.30;;;;;;6175063;28;20118;-66
2022/02/15 13:43:26;;;;;;;0.88;0.70;;;19.30;46.40;;;;;;6175022;28;20026;-66
2022/02/15 13:46:27;;;;;;;1.40;0.63;;;19.30;46.40;;;;;;6175236;28;20026;-67
2022/02/15 13:49:28;;;;;;;1.85;0.90;;;19.30;46.20;;;;;;6175455;28;20371;-67
2022/02/15 13:52:30;;;;;;;1.27;0.55;;;19.30;46.50;;;;;;6175151;28;20125;-67
2022/02/15 13:55:30;;;;;;;0.90;0.60;;;19.30;46.50;;;;;;6174800;28;20046;-67
2022/02/15 13:58:31;;;;;;;0.90;0.63;;;19.30;46.60;;;;;;6175112;28;20019;-67
2022/02/15 14:01:32;;;;;;;1.70;0.70;;;19.30;46.50;;;;;;6175243;28;20088;-68
2022/02/15 14:04:32;;;;;;;1.52;0.70;;;19.30;46.50;;;;;;6174723;28;20105;-68
2022/02/15 14:07:33;;;;;;;1.70;0.63;;;19.30;46.50;;;;;;6174847;28;20022;-67
2022/02/15 14:10:33;;;;;;;1.50;0.65;;;19.30;46.70;;;;;;6175797;28;20486;-67
2022/02/15 14:13:34;;;;;;;0.80;0.60;;;19.30;46.60;;;;;;6175221;28;20027;-68
2022/02/15 14:16:34;;;;;;;1.38;0.80;;;19.30;46.60;;;;;;6174288;28;20501;-67
2022/02/15 14:19:35;;;;;;;1.00;0.65;;;19.30;46.60;;;;;;6174852;28;20023;-67
2022/02/15 14:22:36;;;;;;;0.88;0.50;;;19.30;46.60;;;;;;6174410;28;20027;-68
2022/02/15 14:25:36;;;;;;;1.40;0.73;;;19.30;46.60;;;;;;6174693;28;20410;-67
2022/02/15 14:28:37;;;;;;;0.90;0.60;;;19.30;46.80;;;;;;6173042;28;20030;-67
2022/02/15 14:31:37;;;;;;;1.17;0.70;;;19.30;46.70;;;;;;6174093;28;20433;-66
2022/02/15 14:34:38;;;;;;;1.10;0.68;;;19.30;46.40;;;;;;6152051;28;20066;-67
2022/02/15 14:37:40;;;;;;;1.02;0.52;;;19.30;46.60;;;;;;6150868;28;20544;-67
2022/02/15 14:40:41;;;;;;;1.02;0.77;;;19.30;46.80;;;;;;6148631;28;20069;-67
2022/02/15 14:43:41;;;;;;;1.33;0.68;;;19.30;46.70;;;;;;6151357;28;20546;-67
2022/02/15 14:46:42;;;;;;;0.80;0.50;;;19.30;46.70;;;;;;6172092;28;20027;-67
2022/02/15 14:49:43;;;;;;;3.35;0.82;;;19.30;46.60;;;;;;6172252;28;20529;-67
2022/02/15 14:52:44;;;;;;;1.00;0.75;;;19.30;46.60;;;;;;6172511;28;20035;-67
2022/02/15 14:55:45;;;;;;;1.23;0.70;;;19.30;46.80;;;;;;6173140;28;20130;-67
2022/02/15 14:58:46;;;;;;;0.50;0.50;;;19.30;46.70;;;;;;6172924;28;20039;-67
2022/02/15 15:01:47;;;;;;;1.50;0.65;;;19.30;46.90;;;;;;6172676;28;20029;-67
2022/02/15 15:04:49;;;;;;;1.48;0.60;;;19.30;46.80;;;;;;6171844;28;20651;-67
2022/02/15 15:07:49;;;;;;;4.30;0.70;;;19.30;46.80;;;;;;6172814;28;20437;-67
2022/02/15 15:10:50;;;;;;;1.05;0.65;;;19.30;46.80;;;;;;6172757;28;20069;-67
2022/02/15 15:13:52;;;;;;;1.65;0.50;;;19.30;46.80;;;;;;6159508;28;20121;-67
2022/02/15 15:16:53;;;;;;;1.67;0.70;;;19.30;47.00;;;;;;6172184;28;20331;-66
2022/02/15 15:19:54;;;;;;;4.68;0.75;;;19.30;46.90;;;;;;6172177;28;20097;-66
2022/02/15 15:22:55;;;;;;;2.90;0.60;;;19.30;47.00;;;;;;6172125;28;20050;-67
2022/02/15 15:25:55;;;;;;;2.33;0.82;;;19.30;47.00;;;;;;6172589;28;20498;-67
2022/02/15 15:28:56;;;;;;;1.35;0.60;;;19.30;47.00;;;;;;6172116;28;20533;-68
2022/02/15 15:31:56;;;;;;;1.27;0.75;;;19.30;47.00;;;;;;6171741;28;20097;-67
2022/02/15 15:34:57;;;;;;;2.78;0.95;;;19.30;46.30;;;;;;6171333;28;20034;-67
2022/02/15 15:37:58;;;;;;;3.10;1.10;;;19.30;45.80;;;;;;6163347;28;20034;-67
2022/02/15 15:40:58;;;;;;;4.82;1.27;;;19.20;45.10;;;;;;6170523;28;20045;-67
2022/02/15 15:43:59;;;;;;;5.05;1.80;;;19.20;44.60;;;;;;6166229;28;20344;-67
2022/02/15 15:46:59;;;;;;;4.13;1.73;;;19.20;43.90;;;;;;6170729;28;20037;-67
2022/02/15 15:50:00;;;;;;;6.30;1.85;;;19.20;43.60;;;;;;6170350;28;20085;-68
2022/02/15 15:53:00;;;;;;;4.65;1.70;;;19.20;43.90;;;;;;6171472;28;20508;-67